Time;durP1;ratioP1;P1;durP2;ratioP2;P2;SDS_P1;SDS_P2;PMS_P1;PMS_P2;Temp;Humidity;BMP_temperature;BMP_pressure;BME280_temperature;BME280_humidity;BME280_pressure;Samples;Min_cycle;Max_cycle;Signal;HPM_P1;HPM_P2
2022/01/01 00:02:19;;;;;;;78.68;32.78;;;;;;;11.59;100.00;102322.16;5063630;28;20028;-31
2022/01/01 00:04:44;;;;;;;78.20;35.75;;;;;;;11.58;100.00;102322.09;5065200;28;20028;-32
2022/01/01 00:07:10;;;;;;;81.35;35.08;;;;;;;11.57;100.00;102318.53;5065766;28;20086;-31
2022/01/01 00:09:35;;;;;;;78.22;33.80;;;;;;;11.59;100.00;102324.78;5065583;28;20029;-33
2022/01/01 00:12:00;;;;;;;70.65;32.72;;;;;;;11.58;100.00;102330.91;5059131;28;20032;-31
2022/01/01 00:14:27;;;;;;;66.00;29.75;;;;;;;11.58;100.00;102335.31;5065134;28;20102;-33
2022/01/01 00:16:52;;;;;;;63.85;28.33;;;;;;;11.59;100.00;102332.69;5065670;28;20040;-33
2022/01/01 00:19:17;;;;;;;64.10;28.30;;;;;;;11.60;100.00;102334.50;5055200;28;20035;-32
2022/01/01 00:21:43;;;;;;;62.38;29.05;;;;;;;11.60;100.00;102339.78;5060873;28;20116;-31
2022/01/01 00:24:09;;;;;;;65.43;26.33;;;;;;;11.61;100.00;102336.25;5062812;28;20025;-32
2022/01/01 00:26:35;;;;;;;62.78;25.65;;;;;;;11.62;100.00;102347.72;5059428;28;20498;-32
2022/01/01 00:29:00;;;;;;;58.35;24.95;;;;;;;11.62;100.00;102342.44;5061709;28;20056;-32
2022/01/01 00:31:26;;;;;;;54.58;23.65;;;;;;;11.61;100.00;102338.91;5065660;28;20044;-32
2022/01/01 00:33:51;;;;;;;57.15;23.15;;;;;;;11.63;100.00;102346.88;5046970;28;20492;-33
2022/01/01 00:36:16;;;;;;;51.22;21.35;;;;;;;11.63;100.00;102341.59;5063066;28;20063;-32
2022/01/01 00:38:42;;;;;;;60.08;22.05;;;;;;;11.63;100.00;102341.59;5063688;28;20212;-33
2022/01/01 00:41:07;;;;;;;48.28;21.40;;;;;;;11.63;100.00;102341.59;5060737;28;20016;-32
2022/01/01 00:43:33;;;;;;;56.25;20.83;;;;;;;11.64;100.00;102338.09;5064246;28;20467;-32
2022/01/01 00:45:58;;;;;;;59.63;21.23;;;;;;;11.64;100.00;102333.72;5064955;28;20032;-30
2022/01/01 00:48:23;;;;;;;58.10;20.60;;;;;;;11.65;100.00;102338.13;5061544;28;20031;-33
2022/01/01 00:50:48;;;;;;;63.97;22.83;;;;;;;11.66;100.00;102328.50;5064130;28;20312;-34
2022/01/01 00:53:14;;;;;;;54.90;21.58;;;;;;;11.65;100.00;102332.84;5064827;28;20229;-31
2022/01/01 00:55:39;;;;;;;66.00;21.88;;;;;;;11.64;100.00;102324.91;5058313;28;20040;-31
2022/01/01 00:58:04;;;;;;;59.90;21.23;;;;;;;11.64;100.00;102327.53;5064178;28;20252;-31
2022/01/01 01:00:30;;;;;;;54.80;21.50;;;;;;;11.65;100.00;102332.84;5061403;28;20059;-31
2022/01/01 01:02:55;;;;;;;58.97;21.98;;;;;;;11.65;100.00;102334.63;5064062;28;20089;-31
2022/01/01 01:05:20;;;;;;;53.08;21.25;;;;;;;11.65;100.00;102335.50;5061167;28;20085;-32
2022/01/01 01:07:46;;;;;;;56.08;20.95;;;;;;;11.64;100.00;102338.09;5064005;28;20051;-32
2022/01/01 01:10:12;;;;;;;60.10;23.38;;;;;;;11.65;100.00;102331.97;5047144;28;20028;-33
2022/01/01 01:12:43;;;;;;;55.08;22.85;;;;;;;11.64;100.00;102331.09;5063666;28;20032;-32
2022/01/01 01:15:11;;;;;;;64.68;22.50;;;;;;;11.64;100.00;102328.44;5059334;28;20116;-33
2022/01/01 01:17:37;;;;;;;59.92;20.85;;;;;;;11.63;100.00;102337.22;5062598;28;20066;-30
2022/01/01 01:20:04;;;;;;;55.63;21.73;;;;;;;11.63;100.00;102338.97;5064064;28;20064;-33
2022/01/01 01:22:29;;;;;;;60.53;20.58;;;;;;;11.62;100.00;102338.06;5064082;28;20056;-32
2022/01/01 01:24:55;;;;;;;55.92;21.40;;;;;;;11.62;100.00;102345.09;5054834;28;20052;-30
2022/01/01 01:27:20;;;;;;;52.33;20.55;;;;;;;11.62;100.00;102337.19;5055819;28;20079;-32
2022/01/01 01:29:46;;;;;;;55.38;20.92;;;;;;;11.61;100.00;102353.84;5063702;28;20028;-31
2022/01/01 01:32:11;;;;;;;63.50;21.80;;;;;;;11.61;100.00;102344.19;5058577;28;20101;-32
2022/01/01 01:34:37;;;;;;;58.22;21.20;;;;;;;11.61;100.00;102351.22;5063581;28;20046;-32
2022/01/01 01:37:03;;;;;;;64.35;21.50;;;;;;;11.60;100.00;102344.13;5060291;28;20040;-31
2022/01/01 01:39:28;;;;;;;61.05;22.80;;;;;;;11.59;100.00;102343.25;5064089;28;20024;-31
2022/01/01 01:41:53;;;;;;;57.80;19.92;;;;;;;11.59;100.00;102351.16;5063175;28;20032;-32
2022/01/01 01:44:32;;;;;;;51.45;20.15;;;;;;;11.60;100.00;102358.25;5064073;28;20100;-31
2022/01/01 01:47:00;;;;;;;52.92;20.55;;;;;;;11.59;100.00;102347.63;5063641;28;20559;-33
2022/01/01 01:49:26;;;;;;;57.30;23.13;;;;;;;11.58;100.00;102364.31;5064996;28;20040;-32
2022/01/01 01:51:51;;;;;;;72.60;28.20;;;;;;;11.57;100.00;102367.81;5055525;28;20441;-32
2022/01/01 01:54:17;;;;;;;67.13;25.05;;;;;;;11.57;100.00;102371.31;5063338;28;20019;-33
2022/01/01 01:56:46;;;;;;;59.08;22.60;;;;;;;11.56;100.00;102368.66;5064553;28;20159;-30
2022/01/01 01:59:13;;;;;;;66.07;27.75;;;;;;;11.55;100.00;102373.03;5064264;28;20088;-32
2022/01/01 02:01:38;;;;;;;62.25;24.52;;;;;;;11.55;100.00;102365.13;5063448;28;20047;-31
2022/01/01 02:04:04;;;;;;;62.03;24.60;;;;;;;11.56;100.00;102371.28;5063344;28;20161;-31
2022/01/01 02:06:29;;;;;;;53.17;23.30;;;;;;;11.58;100.00;102366.97;5064548;28;20041;-31
2022/01/01 02:08:55;;;;;;;56.38;21.00;;;;;;;11.57;100.00;102367.81;5063495;28;20079;-31
2022/01/01 02:11:22;;;;;;;48.72;21.23;;;;;;;11.58;100.00;102362.56;5063347;28;20498;-30
2022/01/01 02:18:52;;;;;;;59.33;18.85;;;;;;;11.56;100.00;102372.16;5064255;28;20553;-33
2022/01/01 02:21:19;;;;;;;45.60;18.35;;;;;;;11.57;100.00;102367.81;5060114;28;20025;-31
2022/01/01 02:23:46;;;;;;;48.67;17.52;;;;;;;11.58;100.00;102364.31;5056155;28;20104;-31
2022/01/01 02:26:15;;;;;;;46.50;19.02;;;;;;;11.56;100.00;102355.44;5063439;28;20048;-33
2022/01/01 02:28:46;;;;;;;47.95;17.00;;;;;;;11.55;100.00;102359.84;5058288;28;20070;-32
2022/01/01 02:31:13;;;;;;;45.72;17.83;;;;;;;11.55;100.00;102357.22;5063104;28;20046;-32
2022/01/01 02:33:39;;;;;;;48.78;17.40;;;;;;;11.55;100.00;102359.84;5063375;28;20031;-32
2022/01/01 02:36:05;;;;;;;54.58;17.90;;;;;;;11.55;100.00;102359.84;5063351;28;20052;-32
2022/01/01 02:38:35;;;;;;;46.22;17.60;;;;;;;11.56;100.00;102363.38;5062746;28;20585;-31
2022/01/01 02:41:01;;;;;;;54.22;17.42;;;;;;;11.55;100.00;102354.56;5063441;28;20247;-32
2022/01/01 02:43:26;;;;;;;44.67;17.90;;;;;;;11.55;100.00;102353.66;5062180;28;20031;-31
2022/01/01 02:45:52;;;;;;;59.25;18.48;;;;;;;11.55;100.00;102357.22;5061921;28;20478;-33
2022/01/01 02:48:18;;;;;;;42.70;17.48;;;;;;;11.54;100.00;102355.41;5064055;28;20046;-31
2022/01/01 02:50:43;;;;;;;51.22;17.52;;;;;;;11.55;100.00;102351.94;5064199;28;20103;-31
2022/01/01 02:53:12;;;;;;;46.03;16.98;;;;;;;11.54;100.00;102347.50;5063146;28;20385;-31
2022/01/01 02:55:37;;;;;;;47.47;16.20;;;;;;;11.55;100.00;102340.47;5063884;28;20032;-31
2022/01/01 02:58:04;;;;;;;42.88;17.00;;;;;;;11.54;100.00;102331.66;5064391;28;20032;-33
2022/01/01 03:00:29;;;;;;;39.35;16.13;;;;;;;11.55;100.00;102329.91;5063207;28;20111;-33
2022/01/01 03:02:55;;;;;;;40.05;16.35;;;;;;;11.56;100.00;102326.44;5062929;28;20033;-32
2022/01/01 03:05:20;;;;;;;45.22;15.77;;;;;;;11.56;100.00;102329.94;5074099;28;20028;-32
2022/01/01 03:07:45;;;;;;;38.20;16.13;;;;;;;11.55;100.00;102330.81;5066504;28;20087;-33
2022/01/01 03:10:11;;;;;;;39.13;16.00;;;;;;;11.54;100.00;102318.47;5058557;28;20017;-31
2022/01/01 03:12:36;;;;;;;38.42;15.95;;;;;;;11.55;100.00;102328.19;5066699;28;20538;-31
2022/01/01 03:15:01;;;;;;;39.08;16.23;;;;;;;11.55;100.00;102332.53;5067312;28;20047;-33
2022/01/01 03:17:27;;;;;;;47.72;17.70;;;;;;;11.56;100.00;102337.88;5068250;28;20036;-30
2022/01/01 03:19:52;;;;;;;46.47;17.33;;;;;;;11.56;100.00;102336.97;5066563;28;20033;-33
2022/01/01 03:22:17;;;;;;;44.00;18.80;;;;;;;11.54;100.00;102334.31;5067053;28;20043;-31
2022/01/01 03:24:43;;;;;;;55.83;18.95;;;;;;;11.56;100.00;102334.34;5063626;28;20032;-30
2022/01/01 03:27:08;;;;;;;44.30;18.15;;;;;;;11.56;100.00;102332.59;5058723;28;20162;-31
2022/01/01 03:29:33;;;;;;;53.72;19.08;;;;;;;11.56;100.00;102332.59;5065539;28;20554;-31
2022/01/01 03:31:59;;;;;;;48.47;19.10;;;;;;;11.55;100.00;102330.81;5059874;28;20044;-33
2022/01/01 03:34:24;;;;;;;46.65;19.08;;;;;;;11.56;100.00;102336.97;5065831;28;20025;-32
2022/01/01 03:36:50;;;;;;;40.03;18.90;;;;;;;11.56;100.00;102326.44;5067241;28;20089;-31
2022/01/01 03:39:15;;;;;;;46.25;17.75;;;;;;;11.55;100.00;102322.00;5066490;28;20032;-31
2022/01/01 03:41:41;;;;;;;49.60;19.08;;;;;;;11.55;100.00;102317.63;5062392;28;20024;-33
2022/01/01 03:44:06;;;;;;;45.30;19.33;;;;;;;11.55;100.00;102330.81;5062807;28;20031;-33
2022/01/01 03:46:31;;;;;;;44.40;18.20;;;;;;;11.54;100.00;102331.66;5057978;28;20043;-33
2022/01/01 03:48:56;;;;;;;43.10;18.25;;;;;;;11.52;100.00;102321.91;5065943;28;20097;-32
2022/01/01 03:51:22;;;;;;;35.03;17.85;;;;;;;11.49;100.00;102315.69;5065650;28;20036;-33
2022/01/01 03:53:47;;;;;;;44.03;18.40;;;;;;;11.50;100.00;102312.19;5059755;28;20020;-31
2022/01/01 03:56:14;;;;;;;44.58;18.60;;;;;;;11.52;100.00;102314.00;5060209;28;20103;-30
2022/01/01 03:58:40;;;;;;;41.63;17.40;;;;;;;11.50;100.00;102313.97;5058536;28;20028;-31
2022/01/01 04:01:05;;;;;;;41.45;18.20;;;;;;;11.51;100.00;102315.75;5062365;28;20409;-32
2022/01/01 04:03:30;;;;;;;46.10;19.20;;;;;;;11.50;100.00;102314.84;5066583;28;20317;-31
2022/01/01 04:05:56;;;;;;;37.67;17.45;;;;;;;11.50;100.00;102314.84;5065051;28;20402;-32
2022/01/01 04:08:21;;;;;;;49.88;17.80;;;;;;;11.50;100.00;102335.94;5065467;28;20048;-33
2022/01/01 04:10:47;;;;;;;37.30;17.02;;;;;;;11.50;100.00;102325.41;5064720;28;20115;-32
2022/01/01 04:13:12;;;;;;;42.28;16.88;;;;;;;11.50;100.00;102324.50;5062911;28;20112;-33
2022/01/01 04:15:39;;;;;;;37.42;17.13;;;;;;;11.49;100.00;102318.31;5065675;28;20032;-30
2022/01/01 04:18:10;;;;;;;37.28;17.25;;;;;;;11.49;100.00;102313.03;5066726;28;20040;-31
2022/01/01 04:20:36;;;;;;;39.38;16.23;;;;;;;11.50;100.00;102319.22;5063194;28;20035;-32
2022/01/01 04:23:01;;;;;;;37.92;16.83;;;;;;;11.49;100.00;102310.41;5062249;28;20028;-31
2022/01/01 04:25:27;;;;;;;39.05;16.02;;;;;;;11.50;100.00;102308.69;5072857;28;20036;-33
2022/01/01 04:27:55;;;;;;;35.92;15.75;;;;;;;11.48;100.00;102315.63;5047793;28;20031;-33
2022/01/01 04:30:21;;;;;;;40.20;15.40;;;;;;;11.49;100.00;102314.81;5064201;28;20363;-31
2022/01/01 04:32:47;;;;;;;33.15;14.23;;;;;;;11.47;100.00;102317.41;5061191;28;20021;-31
2022/01/01 04:35:14;;;;;;;38.80;15.40;;;;;;;11.48;100.00;102316.56;5065392;28;20338;-32
2022/01/01 04:37:39;;;;;;;34.05;14.75;;;;;;;11.49;100.00;102320.97;5060929;28;20119;-31
2022/01/01 04:40:06;;;;;;;31.30;13.80;;;;;;;11.49;100.00;102317.44;5057860;28;20534;-31
2022/01/01 04:42:31;;;;;;;31.75;13.18;;;;;;;11.48;100.00;102324.47;5064374;28;20035;-30
2022/01/01 04:44:57;;;;;;;44.65;14.93;;;;;;;11.48;100.00;102323.56;5063761;28;20233;-31
2022/01/01 04:47:24;;;;;;;51.13;15.00;;;;;;;11.50;100.00;102332.44;5057179;28;20059;-30
2022/01/01 04:49:49;;;;;;;33.65;14.35;;;;;;;11.49;100.00;102325.34;5066175;28;20387;-31
2022/01/01 04:52:14;;;;;;;30.50;13.30;;;;;;;11.49;100.00;102320.06;5066039;28;20040;-31
2022/01/01 04:54:42;;;;;;;36.28;13.75;;;;;;;11.50;100.00;102324.50;5065367;28;20550;-32
2022/01/01 04:57:07;;;;;;;34.92;13.57;;;;;;;11.50;100.00;102321.88;5065461;28;20033;-31
2022/01/01 04:59:34;;;;;;;33.20;13.45;;;;;;;11.49;100.00;102322.72;5055053;28;20498;-32
2022/01/01 05:01:59;;;;;;;35.38;13.02;;;;;;;11.49;100.00;102325.34;5057330;28;20036;-32
2022/01/01 05:04:24;;;;;;;32.97;13.02;;;;;;;11.50;100.00;102328.03;5065289;28;20016;-33
2022/01/01 05:06:51;;;;;;;31.95;12.93;;;;;;;11.49;100.00;102330.63;5063297;28;20390;-33
2022/01/01 05:09:17;;;;;;;38.22;14.15;;;;;;;11.50;100.00;102337.72;5062577;28;20103;-31
2022/01/01 05:11:43;;;;;;;28.27;12.50;;;;;;;11.50;100.00;102332.44;5052285;28;20054;-33
2022/01/01 05:14:09;;;;;;;38.42;12.98;;;;;;;11.50;100.00;102340.34;5064107;28;20013;-32
2022/01/01 05:16:34;;;;;;;32.25;13.32;;;;;;;11.49;100.00;102335.91;5063717;28;20036;-33
2022/01/01 05:18:59;;;;;;;33.40;13.18;;;;;;;11.50;100.00;102345.63;5063616;28;20513;-33
2022/01/01 05:21:27;;;;;;;30.98;12.48;;;;;;;11.48;100.00;102340.31;5064249;28;20032;-33
2022/01/01 05:23:52;;;;;;;36.38;12.18;;;;;;;11.49;100.00;102346.47;5045746;28;20033;-31
2022/01/01 05:26:17;;;;;;;31.20;12.80;;;;;;;11.49;100.00;102341.19;5063236;28;20021;-30
2022/01/01 05:28:44;;;;;;;32.00;12.63;;;;;;;11.49;100.00;102343.81;5047770;28;20036;-30
2022/01/01 05:31:10;;;;;;;29.88;12.82;;;;;;;11.49;100.00;102346.47;5063398;28;20067;-31
2022/01/01 05:33:35;;;;;;;39.22;13.20;;;;;;;11.48;100.00;102339.38;5063631;28;20071;-33
2022/01/01 05:36:00;;;;;;;31.92;13.30;;;;;;;11.46;100.00;102343.75;5063625;28;20032;-31
2022/01/01 05:38:25;;;;;;;34.75;12.60;;;;;;;11.46;100.00;102344.63;5056343;28;20037;-30
2022/01/01 05:40:51;;;;;;;27.25;12.75;;;;;;;11.44;100.00;102333.16;5059215;28;20500;-31
2022/01/01 05:43:16;;;;;;;33.33;12.88;;;;;;;11.43;100.00;102336.63;5064547;28;20044;-32
2022/01/01 05:45:43;;;;;;;28.52;12.43;;;;;;;11.42;100.00;102333.94;5064279;28;20032;-33
2022/01/01 05:48:09;;;;;;;31.60;11.40;;;;;;;11.43;100.00;102335.72;5062364;28;20107;-33
2022/01/01 05:50:35;;;;;;;29.88;12.30;;;;;;;11.41;100.00;102333.03;5055174;28;20037;-33
2022/01/01 05:53:00;;;;;;;27.40;12.13;;;;;;;11.40;100.00;102339.16;5055924;28;20131;-31
2022/01/01 05:55:26;;;;;;;28.13;11.25;;;;;;;11.38;100.00;102332.03;5060387;28;20086;-32
2022/01/01 05:57:51;;;;;;;33.25;11.43;;;;;;;11.38;100.00;102338.22;5064919;28;20174;-33
2022/01/01 06:00:17;;;;;;;24.98;11.43;;;;;;;11.38;100.00;102329.41;5063742;28;20039;-32
2022/01/01 06:02:43;;;;;;;28.48;10.80;;;;;;;11.37;100.00;102332.91;5063340;28;20036;-31
2022/01/01 06:05:10;;;;;;;27.17;10.70;;;;;;;11.36;100.00;102339.03;5059935;28;20028;-32
2022/01/01 06:07:35;;;;;;;25.90;11.05;;;;;;;11.34;100.00;102323.16;5062440;28;20032;-31
2022/01/01 06:10:01;;;;;;;27.38;11.25;;;;;;;11.33;100.00;102324.88;5066935;28;20535;-33
2022/01/01 06:12:27;;;;;;;34.40;12.02;;;;;;;11.31;100.00;102318.69;5064880;28;20093;-33
2022/01/01 06:14:52;;;;;;;24.33;10.77;;;;;;;11.30;100.00;102316.00;5063624;28;20549;-32
2022/01/01 06:17:18;;;;;;;27.60;10.80;;;;;;;11.27;100.00;102307.97;5058934;28;20399;-32
2022/01/01 06:19:43;;;;;;;29.13;11.07;;;;;;;11.26;100.00;102319.38;5064476;28;20060;-31
2022/01/01 06:22:09;;;;;;;23.83;10.07;;;;;;;11.23;100.00;102317.56;5058233;28;20055;-31
2022/01/01 06:24:34;;;;;;;27.75;10.50;;;;;;;11.21;100.00;102311.34;5061128;28;20028;-32
2022/01/01 06:26:59;;;;;;;24.58;9.65;;;;;;;11.19;100.00;102322.69;5062199;28;20037;-32
2022/01/01 06:29:24;;;;;;;28.10;10.25;;;;;;;11.14;100.00;102322.56;5064427;28;20104;-31
2022/01/01 06:31:50;;;;;;;22.73;9.32;;;;;;;11.09;100.00;102327.66;5063887;28;20032;-33
2022/01/01 06:34:15;;;;;;;32.28;10.57;;;;;;;11.04;100.00;102337.19;5060440;28;20016;-31
2022/01/01 06:36:40;;;;;;;26.52;9.77;;;;;;;10.99;100.00;102329.13;5063064;28;20041;-30
2022/01/01 06:39:05;;;;;;;21.70;10.80;;;;;;;10.97;100.00;102335.22;5062853;28;20068;-33
2022/01/01 06:41:31;;;;;;;22.73;9.18;;;;;;;10.96;100.00;102334.28;5066363;28;20028;-33
2022/01/01 06:43:56;;;;;;;25.73;9.48;;;;;;;10.92;100.00;102331.53;5065670;28;20032;-31
2022/01/01 06:46:21;;;;;;;31.95;9.88;;;;;;;10.90;100.00;102334.13;5066219;28;20071;-31
2022/01/01 06:48:47;;;;;;;29.67;11.10;;;;;;;10.89;100.00;102337.59;5064293;28;20040;-31
2022/01/01 06:51:12;;;;;;;27.42;9.63;;;;;;;10.87;100.00;102333.13;5064687;28;20024;-32
2022/01/01 06:53:38;;;;;;;27.98;10.15;;;;;;;10.86;100.00;102333.94;5062668;28;20051;-31
2022/01/01 06:56:05;;;;;;;23.73;9.48;;;;;;;10.84;100.00;102337.44;5060416;28;20032;-32
2022/01/01 06:58:35;;;;;;;20.70;9.50;;;;;;;10.83;100.00;102337.38;5065755;28;20032;-32
2022/01/01 07:01:00;;;;;;;23.85;9.40;;;;;;;10.83;100.00;102334.75;5066139;28;20058;-31
2022/01/01 07:03:25;;;;;;;25.58;9.93;;;;;;;10.84;100.00;102339.19;5066321;28;20494;-33
2022/01/01 07:05:51;;;;;;;21.02;8.68;;;;;;;10.87;100.00;102339.28;5062156;28;20677;-31
2022/01/01 07:08:16;;;;;;;28.55;9.70;;;;;;;10.88;100.00;102350.72;5065980;28;20031;-33
2022/01/01 07:10:44;;;;;;;29.23;9.52;;;;;;;10.89;100.00;102357.75;5066436;28;20494;-30
2022/01/01 07:13:10;;;;;;;28.00;10.07;;;;;;;10.89;100.00;102357.75;5058327;28;20019;-31
2022/01/01 07:15:35;;;;;;;21.48;8.52;;;;;;;10.91;100.00;102356.97;5064932;28;20040;-31
2022/01/01 07:18:01;;;;;;;25.50;9.63;;;;;;;10.93;100.00;102359.69;5066065;28;20048;-31
2022/01/01 07:20:26;;;;;;;33.05;10.68;;;;;;;10.95;100.00;102357.97;5062250;28;20032;-33
2022/01/01 07:22:51;;;;;;;22.45;8.93;;;;;;;10.96;100.00;102355.38;5065731;28;20813;-31
2022/01/01 07:25:16;;;;;;;30.77;9.07;;;;;;;10.98;100.00;102358.06;5066290;28;20090;-32
2022/01/01 07:27:42;;;;;;;26.13;9.15;;;;;;;10.98;100.00;102353.72;5067140;28;20036;-30
2022/01/01 07:30:09;;;;;;;20.25;9.23;;;;;;;11.00;100.00;102369.56;5065766;28;20527;-31
2022/01/01 07:32:39;;;;;;;31.92;8.57;;;;;;;10.98;100.00;102369.53;5066603;28;20573;-32
2022/01/01 07:35:05;;;;;;;21.40;8.65;;;;;;;11.00;100.00;102367.81;5066426;28;20036;-32
2022/01/01 07:37:30;;;;;;;25.23;8.23;;;;;;;11.00;100.00;102367.81;5064969;28;20409;-31
2022/01/01 07:39:55;;;;;;;23.05;8.65;;;;;;;11.00;100.00;102366.94;5066543;28;20039;-31
2022/01/01 07:42:20;;;;;;;18.80;7.75;;;;;;;11.04;99.83;102362.66;5065275;28;20107;-31
2022/01/01 07:44:46;;;;;;;18.40;7.70;;;;;;;11.05;99.65;102372.38;5064687;28;20230;-31
2022/01/01 07:47:11;;;;;;;27.85;9.23;;;;;;;11.05;99.48;102375.00;5065568;28;20074;-32
2022/01/01 07:49:36;;;;;;;18.58;8.70;;;;;;;11.06;99.65;102382.03;5063820;28;20114;-31
2022/01/01 07:52:02;;;;;;;24.35;8.70;;;;;;;11.06;99.65;102379.41;5063232;28;20040;-31
2022/01/01 07:54:28;;;;;;;22.83;8.57;;;;;;;11.07;99.37;102387.38;5064771;28;20031;-33
2022/01/01 07:56:53;;;;;;;25.85;7.85;;;;;;;11.08;99.56;102390.91;5062806;28;20448;-31
2022/01/01 07:59:18;;;;;;;28.30;8.50;;;;;;;11.08;99.12;102389.16;5064462;28;20040;-31
2022/01/01 08:01:43;;;;;;;30.13;9.57;;;;;;;11.10;99.24;102386.56;5061573;28;20154;-31
2022/01/01 08:04:10;;;;;;;18.10;7.70;;;;;;;11.09;99.45;102385.69;5060766;28;20036;-31
2022/01/01 08:06:35;;;;;;;24.40;7.40;;;;;;;11.10;99.21;102395.41;5064812;28;20271;-31
2022/01/01 08:09:02;;;;;;;23.27;7.40;;;;;;;11.09;99.42;102390.97;5059161;28;20082;-31
2022/01/01 08:11:27;;;;;;;22.27;8.50;;;;;;;11.12;99.01;102387.53;5065212;28;20025;-31
2022/01/01 08:13:53;;;;;;;23.45;8.23;;;;;;;11.14;99.27;102397.28;5045283;28;20482;-33
2022/01/01 08:16:19;;;;;;;27.95;8.95;;;;;;;11.16;98.72;102394.69;5063634;28;20033;-32
2022/01/01 08:18:44;;;;;;;22.65;8.68;;;;;;;11.14;99.17;102388.50;5066847;28;20089;-31
2022/01/01 08:21:09;;;;;;;25.27;8.68;;;;;;;11.16;99.11;102390.28;5060921;28;20037;-33
2022/01/01 08:23:34;;;;;;;20.52;8.25;;;;;;;11.17;98.65;102392.09;5059145;28;20039;-31
2022/01/01 08:26:00;;;;;;;24.48;8.10;;;;;;;11.20;98.96;102388.66;5065938;28;20093;-33
2022/01/01 08:28:26;;;;;;;22.45;8.85;;;;;;;11.21;98.91;102393.09;5065336;28;20051;-32
2022/01/01 08:30:51;;;;;;;20.75;8.45;;;;;;;11.22;98.84;102392.25;5063478;28;20036;-31
2022/01/01 08:33:16;;;;;;;21.55;8.32;;;;;;;11.23;98.82;102394.06;5063941;28;20035;-31
2022/01/01 08:35:42;;;;;;;23.25;8.80;;;;;;;11.24;98.63;102390.53;5064875;28;20056;-32
2022/01/01 08:38:07;;;;;;;24.38;8.30;;;;;;;11.25;98.20;102379.16;5062529;28;20062;-33
2022/01/01 08:40:34;;;;;;;22.08;9.23;;;;;;;11.26;98.10;102380.03;5064260;28;20520;-31
2022/01/01 08:43:00;;;;;;;25.80;8.50;;;;;;;11.26;98.60;102383.59;5061881;28;20017;-30
2022/01/01 08:45:26;;;;;;;21.38;9.15;;;;;;;11.28;98.35;102387.16;5064273;28;20032;-33
2022/01/01 08:47:51;;;;;;;22.38;8.70;;;;;;;11.27;98.09;102390.66;5062099;28;20086;-31
2022/01/01 08:50:17;;;;;;;20.42;7.97;;;;;;;11.27;98.29;102392.38;5062720;28;20409;-30
2022/01/01 08:52:44;;;;;;;23.55;8.40;;;;;;;11.27;98.34;102392.38;5063617;28;20039;-33
2022/01/01 08:55:09;;;;;;;23.15;9.20;;;;;;;11.27;98.63;102389.75;5064465;28;20028;-32
2022/01/01 08:57:35;;;;;;;28.77;8.80;;;;;;;11.28;98.52;102386.28;5061570;28;20055;-31
2022/01/01 09:00:03;;;;;;;21.90;8.35;;;;;;;11.28;98.29;102388.91;5064566;28;20037;-31
2022/01/01 09:02:29;;;;;;;27.98;10.07;;;;;;;11.28;97.96;102384.50;5054392;28;20316;-31
2022/01/01 09:04:54;;;;;;;21.95;8.40;;;;;;;11.28;98.32;102381.00;5063368;28;20070;-31
2022/01/01 09:07:20;;;;;;;23.05;9.10;;;;;;;11.27;98.64;102385.38;5063591;28;20511;-32
2022/01/01 09:09:45;;;;;;;23.98;8.90;;;;;;;11.28;98.19;102387.16;5064131;28;20035;-32
2022/01/01 09:12:11;;;;;;;27.13;9.13;;;;;;;11.28;98.08;102383.63;5063779;28;20513;-32
2022/01/01 09:14:37;;;;;;;23.23;9.05;;;;;;;11.29;97.93;102382.78;5064032;28;20053;-30
2022/01/01 09:17:04;;;;;;;33.13;10.65;;;;;;;11.29;98.48;102383.69;5046142;28;20439;-33
2022/01/01 09:19:30;;;;;;;21.52;9.30;;;;;;;11.30;98.01;102369.66;5062172;28;20020;-33
2022/01/01 09:21:55;;;;;;;18.75;8.70;;;;;;;11.30;98.04;102379.31;5044749;28;20398;-31
2022/01/01 09:24:20;;;;;;;20.40;10.00;;;;;;;11.31;98.21;102373.16;5061849;28;20028;-31
2022/01/01 09:26:46;;;;;;;19.92;9.25;;;;;;;11.32;98.04;102375.88;5060907;28;20389;-33
2022/01/01 09:29:11;;;;;;;25.33;9.40;;;;;;;11.32;97.91;102367.97;5063197;28;20032;-31
2022/01/01 09:31:41;;;;;;;25.75;10.30;;;;;;;11.35;98.54;102377.72;5064178;28;20032;-32
2022/01/01 09:34:07;;;;;;;21.70;9.23;;;;;;;11.37;97.43;102362.81;5065081;28;20382;-32
2022/01/01 09:36:33;;;;;;;23.05;9.25;;;;;;;11.38;97.96;102358.41;5064571;28;20033;-33
2022/01/01 09:38:58;;;;;;;19.20;9.48;;;;;;;11.41;97.73;102358.53;5064047;28;20115;-32
2022/01/01 09:41:24;;;;;;;25.85;10.25;;;;;;;11.41;97.71;102363.81;5065165;28;20066;-33
2022/01/01 09:43:53;;;;;;;25.48;10.40;;;;;;;11.41;98.48;102369.97;5064348;28;20044;-32
2022/01/01 09:46:18;;;;;;;26.00;9.95;;;;;;;11.43;97.74;102363.00;5064627;28;20294;-31
2022/01/01 09:48:45;;;;;;;23.38;9.48;;;;;;;11.42;97.31;102357.69;5063714;28;20321;-31
2022/01/01 09:51:10;;;;;;;25.00;9.95;;;;;;;11.43;97.69;102365.66;5063806;28;20059;-31
2022/01/01 09:53:36;;;;;;;21.90;10.13;;;;;;;11.41;97.42;102359.41;5064175;28;20482;-31
2022/01/01 09:56:04;;;;;;;22.50;9.90;;;;;;;11.41;97.10;102361.16;5061976;28;20044;-33
2022/01/01 09:58:32;;;;;;;19.58;10.05;;;;;;;11.40;96.93;102372.56;5062991;28;21351;-32
2022/01/01 10:00:58;;;;;;;28.45;10.27;;;;;;;11.40;97.14;102370.81;5062933;28;20032;-33
2022/01/01 10:03:37;;;;;;;22.90;9.90;;;;;;;11.40;98.03;102362.91;5061385;28;20035;-33
2022/01/01 10:06:02;;;;;;;21.08;10.70;;;;;;;11.41;97.39;102358.53;5063166;28;20497;-33
2022/01/01 10:08:28;;;;;;;27.90;10.60;;;;;;;11.42;97.37;102360.34;5062346;28;20067;-33
2022/01/01 10:10:53;;;;;;;25.55;10.77;;;;;;;11.43;97.45;102352.47;5062538;28;20078;-31
2022/01/01 10:13:34;;;;;;;25.20;10.88;;;;;;;11.47;97.55;102338.50;5060241;28;20031;-33
2022/01/01 10:16:02;;;;;;;24.08;10.73;;;;;;;11.48;97.74;102336.75;5062370;28;20044;-30
2022/01/01 10:18:33;;;;;;;23.65;11.68;;;;;;;11.49;97.15;102334.16;5063307;28;20099;-32
2022/01/01 10:21:09;;;;;;;21.52;9.90;;;;;;;11.52;97.09;102322.78;5062554;28;20036;-32
2022/01/01 10:23:36;;;;;;;26.90;11.02;;;;;;;11.53;97.12;102324.59;5060421;28;20111;-31
2022/01/01 10:29:13;;;;;;;23.13;10.30;;;;;;;11.54;97.21;102321.09;5059576;28;20058;-31
2022/01/01 10:31:40;;;;;;;21.00;10.38;;;;;;;11.55;96.64;102319.34;5063147;28;20074;-33
2022/01/01 10:34:11;;;;;;;28.08;10.82;;;;;;;11.55;96.80;102320.28;5045785;28;20025;-32
2022/01/01 10:36:36;;;;;;;28.80;10.02;;;;;;;11.56;96.79;102315.88;5061918;28;20033;-33
2022/01/01 10:39:10;;;;;;;28.35;10.95;;;;;;;11.59;97.26;102319.50;5062825;28;20043;-32
2022/01/01 10:41:52;;;;;;;21.35;10.75;;;;;;;11.65;97.64;102317.03;5055222;28;20493;-31
2022/01/01 10:44:23;;;;;;;25.02;10.77;;;;;;;11.70;96.88;102313.66;5062843;28;20038;-33
2022/01/01 10:46:48;;;;;;;27.27;10.90;;;;;;;11.74;96.94;102308.47;5063501;28;20078;-33
2022/01/01 10:49:33;;;;;;;25.23;10.65;;;;;;;11.79;97.02;102295.44;5062964;28;20029;-32
2022/01/01 10:52:33;;;;;;;25.98;11.13;;;;;;;11.84;97.19;102286.78;5058781;28;20075;-31
2022/01/01 10:55:02;;;;;;;25.70;10.68;;;;;;;11.88;95.76;102281.56;5057931;28;20032;-31
2022/01/01 10:57:33;;;;;;;20.73;10.07;;;;;;;11.89;95.93;102289.53;5063843;28;20044;-31
2022/01/01 11:00:07;;;;;;;19.17;10.20;;;;;;;11.93;96.65;102290.50;5059338;28;20071;-30
2022/01/01 11:02:34;;;;;;;23.92;10.02;;;;;;;11.94;95.89;102282.63;5059277;28;20047;-30
2022/01/01 11:05:00;;;;;;;25.23;10.48;;;;;;;11.97;96.39;102282.75;5064136;28;20023;-32
2022/01/01 11:07:29;;;;;;;30.42;10.88;;;;;;;11.99;96.51;102285.44;5064284;28;20051;-33
2022/01/01 11:09:56;;;;;;;23.35;10.32;;;;;;;12.00;95.74;102279.31;5063149;28;20131;-33
2022/01/01 11:12:22;;;;;;;24.17;10.20;;;;;;;12.02;96.50;102288.16;5062145;28;20039;-31